createdAt,value
2019-06-20T00:00:35.444Z,56.00
2019-06-20T00:03:07.127Z,56.17
2019-06-20T00:05:38.449Z,56.58
2019-06-20T00:08:11.787Z,56.70
2019-06-20T00:10:43.882Z,56.91
2019-06-20T00:13:15.189Z,56.72
2019-06-20T00:15:46.905Z,56.42
2019-06-20T00:18:18.489Z,56.40
2019-06-20T00:20:50.370Z,56.63
2019-06-20T00:23:21.822Z,56.82
2019-06-20T00:25:53.771Z,56.95
2019-06-20T00:28:25.429Z,56.78
2019-06-20T00:30:57.547Z,56.83
2019-06-20T00:33:29.148Z,57.04
2019-06-20T00:36:00.900Z,57.40
2019-06-20T00:38:32.363Z,57.18
2019-06-20T00:41:04.007Z,56.75
2019-06-20T00:43:38.018Z,56.85
2019-06-20T00:46:09.675Z,56.75
2019-06-20T00:48:41.196Z,57.14
2019-06-20T00:51:12.708Z,57.16
2019-06-20T00:53:45.045Z,57.25
2019-06-20T00:56:16.763Z,57.22
2019-06-20T00:58:48.655Z,57.61
2019-06-20T01:01:20.416Z,57.62
2019-06-20T01:03:52.169Z,57.62
2019-06-20T01:06:23.932Z,57.60
2019-06-20T01:08:57.525Z,57.60
2019-06-20T01:11:29.186Z,57.81
2019-06-20T01:14:01.142Z,57.92
2019-06-20T01:16:34.744Z,58.09
2019-06-20T01:19:06.235Z,58.23
2019-06-20T01:21:38.127Z,58.28
2019-06-20T01:24:10.013Z,58.21
2019-06-20T01:26:41.713Z,58.17
2019-06-20T01:29:13.431Z,58.25
2019-06-20T01:31:45.282Z,58.51
2019-06-20T01:34:16.936Z,58.38
2019-06-20T01:36:49.001Z,58.45
2019-06-20T01:39:20.860Z,58.63
2019-06-20T01:41:52.563Z,58.60
2019-06-20T01:44:24.478Z,58.76
2019-06-20T01:46:56.361Z,58.87
2019-06-20T01:49:27.787Z,59.06
2019-06-20T01:51:59.335Z,59.57
2019-06-20T01:54:30.735Z,59.63
2019-06-20T01:57:03.360Z,59.29
2019-06-20T01:59:35.271Z,59.27
2019-06-20T02:02:08.318Z,59.31
2019-06-20T02:04:40.245Z,59.49
2019-06-20T02:07:11.823Z,59.52
2019-06-20T02:09:44.912Z,59.35
2019-06-20T02:12:18.114Z,59.09
2019-06-20T02:14:52.317Z,58.82
2019-06-20T02:17:24.072Z,58.87
2019-06-20T02:19:57.775Z,58.63
2019-06-20T02:22:29.636Z,58.13
2019-06-20T02:25:01.285Z,57.76
2019-06-20T02:27:33.021Z,57.95
2019-06-20T02:30:05.890Z,57.88
2019-06-20T02:32:37.376Z,58.30
2019-06-20T02:35:09.234Z,58.39
2019-06-20T02:37:40.992Z,58.62
2019-06-20T02:40:12.859Z,58.57
2019-06-20T02:42:44.905Z,58.42
2019-06-20T02:45:16.260Z,58.18
2019-06-20T02:47:48.527Z,58.08
2019-06-20T02:50:20.591Z,58.02
2019-06-20T02:52:52.046Z,58.26
2019-06-20T02:55:24.323Z,58.16
2019-06-20T02:57:56.274Z,57.95
2019-06-20T03:00:39.909Z,57.96
2019-06-20T03:03:11.562Z,57.73
2019-06-20T03:05:43.020Z,57.51
2019-06-20T03:08:14.156Z,57.62
2019-06-20T03:10:45.908Z,57.87
2019-06-20T03:13:18.386Z,57.73
2019-06-20T03:15:50.207Z,57.68
2019-06-20T03:18:22.000Z,57.51
2019-06-20T03:20:53.223Z,57.43
2019-06-20T03:23:26.745Z,57.49
2019-06-20T03:26:00.960Z,57.44
2019-06-20T03:28:32.299Z,56.82
2019-06-20T03:31:04.377Z,56.65
2019-06-20T03:33:35.961Z,56.58
2019-06-20T03:36:08.079Z,56.67
2019-06-20T03:38:39.837Z,56.53
2019-06-20T03:41:11.598Z,56.21
2019-06-20T03:43:43.460Z,55.91
2019-06-20T03:46:15.107Z,55.67
2019-06-20T03:48:46.765Z,55.44
2019-06-20T03:51:18.519Z,54.91
2019-06-20T03:53:50.275Z,54.88
2019-06-20T03:56:22.135Z,54.80
2019-06-20T03:58:54.123Z,54.27
2019-06-20T04:01:27.286Z,54.30
2019-06-20T04:03:58.945Z,54.24
2019-06-20T04:06:32.037Z,54.70
2019-06-20T04:09:05.042Z,54.08
2019-06-20T04:11:36.667Z,54.00
2019-06-20T04:14:08.105Z,54.10
2019-06-20T04:16:39.675Z,53.63
2019-06-20T04:19:11.374Z,53.16
2019-06-20T04:21:43.076Z,52.87
2019-06-20T04:24:14.636Z,52.85
2019-06-20T04:26:46.387Z,52.82
2019-06-20T04:29:19.702Z,52.75
2019-06-20T04:31:51.445Z,52.69
2019-06-20T04:34:23.094Z,52.55
2019-06-20T04:36:54.864Z,52.67
2019-06-20T04:39:26.813Z,52.36
2019-06-20T04:41:58.371Z,52.47
2019-06-20T04:44:30.187Z,51.90
2019-06-20T04:47:03.636Z,52.24
2019-06-20T04:49:36.400Z,52.04
2019-06-20T04:52:08.054Z,51.59
2019-06-20T04:54:40.510Z,51.55
2019-06-20T04:57:12.495Z,51.35
2019-06-20T04:59:43.936Z,51.00
2019-06-20T05:02:20.022Z,50.76
2019-06-20T05:04:51.835Z,50.99
2019-06-20T05:07:23.606Z,51.42
2019-06-20T05:09:55.271Z,51.42
2019-06-20T05:12:26.833Z,51.23
2019-06-20T05:15:00.723Z,51.51
2019-06-20T05:17:32.508Z,51.63
2019-06-20T05:20:07.935Z,51.44
2019-06-20T05:22:40.911Z,51.31
2019-06-20T05:25:13.129Z,50.75
2019-06-20T05:27:46.165Z,50.91
2019-06-20T05:30:17.856Z,50.12
2019-06-20T05:32:49.678Z,49.42
2019-06-20T05:35:21.464Z,49.63
2019-06-20T05:37:53.030Z,48.27
2019-06-20T05:40:25.049Z,48.24
2019-06-20T05:42:56.721Z,48.00
2019-06-20T05:45:28.461Z,46.96
2019-06-20T05:47:59.915Z,46.87
2019-06-20T05:50:33.021Z,46.59
2019-06-20T05:53:05.674Z,45.87
2019-06-20T05:55:37.226Z,45.82
2019-06-20T05:58:08.573Z,45.68
2019-06-20T06:00:40.235Z,46.20
2019-06-20T06:03:13.793Z,46.03
2019-06-20T06:05:45.165Z,46.05
2019-06-20T06:08:16.931Z,44.97
2019-06-20T06:10:49.044Z,45.22
2019-06-20T06:13:20.952Z,45.25
2019-06-20T06:15:55.401Z,44.11
2019-06-20T06:18:28.153Z,44.28
2019-06-20T06:21:00.073Z,43.98
2019-06-20T06:23:31.361Z,44.32
2019-06-20T06:26:03.120Z,43.22
2019-06-20T06:28:34.981Z,42.95
2019-06-20T06:31:07.197Z,43.86
2019-06-20T06:33:39.019Z,43.71
2019-06-20T06:36:13.427Z,41.96
2019-06-20T06:38:45.095Z,41.82
2019-06-20T06:41:16.883Z,41.82
2019-06-20T06:43:49.633Z,41.99
2019-06-20T06:46:20.860Z,41.30
2019-06-20T06:48:52.619Z,41.77
2019-06-20T06:51:25.279Z,41.06
2019-06-20T06:53:57.669Z,40.96
2019-06-20T06:56:28.903Z,38.37
2019-06-20T06:59:00.424Z,38.16
2019-06-20T07:01:32.785Z,38.95
2019-06-20T07:04:04.414Z,38.72
2019-06-20T07:06:35.864Z,38.49
2019-06-20T07:09:08.695Z,38.64
2019-06-20T07:11:41.576Z,37.50
2019-06-20T07:14:13.359Z,37.33
2019-06-20T07:50:39.496Z,33.30
2019-06-20T07:53:11.384Z,33.41
2019-06-20T07:55:43.682Z,33.83
2019-06-20T07:58:18.200Z,30.79
2019-06-20T08:00:53.504Z,30.11
2019-06-20T08:03:24.759Z,28.52
2019-06-20T08:05:56.458Z,28.67
2019-06-20T08:08:30.723Z,29.52
2019-06-20T08:11:03.674Z,29.47
2019-06-20T08:13:37.247Z,29.21
2019-06-20T08:16:08.684Z,29.05
2019-06-20T08:18:41.431Z,29.35
2019-06-20T08:21:13.809Z,29.29
2019-06-20T08:23:47.270Z,29.84
2019-06-20T08:26:18.856Z,29.05
2019-06-20T08:29:07.282Z,28.79
2019-06-20T08:31:27.513Z,28.22
2019-06-20T08:34:02.270Z,27.83
2019-06-20T08:36:33.795Z,27.42
2019-06-20T08:39:09.782Z,27.03
2019-06-20T08:41:41.692Z,27.37
2019-06-20T08:44:14.362Z,28.15
2019-06-20T08:46:48.068Z,28.90
2019-06-20T08:49:19.327Z,29.85
2019-06-20T08:51:51.080Z,28.87
2019-06-20T08:54:24.865Z,29.09
2019-06-20T08:56:58.988Z,28.69
2019-06-20T09:06:12.891Z,27.39
2019-06-20T09:08:45.631Z,26.56
2019-06-20T09:11:18.926Z,25.76
2019-06-20T09:13:51.055Z,25.54
2019-06-20T09:16:24.726Z,24.43
2019-06-20T09:18:56.775Z,22.78
2019-06-20T09:21:28.248Z,22.33
2019-06-20T09:24:00.014Z,21.94
2019-06-20T09:26:34.118Z,21.51
2019-06-20T09:29:05.375Z,21.51
2019-06-20T09:31:37.008Z,21.31
2019-06-20T09:34:11.090Z,21.85
2019-06-20T09:36:42.784Z,21.32
2019-06-20T09:39:14.231Z,21.53
2019-06-20T09:41:46.397Z,21.35
2019-06-20T09:44:18.255Z,21.79
2019-06-20T09:46:51.154Z,22.30
2019-06-20T09:49:23.104Z,22.41
2019-06-20T09:51:56.629Z,21.68
2019-06-20T09:54:28.363Z,20.71
2019-06-20T09:57:02.774Z,20.68
2019-06-20T09:59:34.857Z,21.32
2019-06-20T10:02:06.520Z,20.68
2019-06-20T10:04:52.407Z,19.25
2019-06-20T10:07:24.033Z,18.85
2019-06-20T10:09:56.308Z,18.15
2019-06-20T10:12:30.832Z,18.03
2019-06-20T10:15:02.496Z,17.90
2019-06-20T10:17:35.582Z,18.24
2019-06-20T10:20:09.125Z,17.55
2019-06-20T10:22:42.197Z,17.60
2019-06-20T10:25:12.718Z,17.85
2019-06-20T10:27:46.633Z,18.03
2019-06-20T10:30:21.666Z,19.58
2019-06-20T10:32:53.477Z,19.61
2019-06-20T10:35:26.169Z,18.54
2019-06-20T10:37:58.888Z,17.85
2019-06-20T10:40:30.695Z,17.35
2019-06-20T10:43:02.075Z,17.62
2019-06-20T10:45:34.251Z,18.86
2019-06-20T10:48:05.988Z,19.76
2019-06-20T10:50:37.628Z,20.44
2019-06-20T10:53:09.586Z,18.48
2019-06-20T10:55:42.078Z,16.63
2019-06-20T10:58:14.376Z,16.16
2019-06-20T11:00:46.205Z,15.74
2019-06-20T11:03:17.947Z,15.39
2019-06-20T11:05:50.771Z,15.51
2019-06-20T11:08:22.148Z,15.19
2019-06-20T11:10:56.602Z,14.46
2019-06-20T11:13:27.940Z,14.57
2019-06-20T11:16:01.748Z,14.38
2019-06-20T11:18:33.191Z,15.08
2019-06-20T11:21:04.549Z,14.91
2019-06-20T11:23:36.494Z,16.07
2019-06-20T11:26:09.185Z,16.55
2019-06-20T11:28:41.428Z,16.03
2019-06-20T11:31:13.926Z,17.41
2019-06-20T11:33:45.380Z,18.77
2019-06-20T11:36:17.132Z,20.16
2019-06-20T11:38:49.225Z,20.62
2019-06-20T11:41:20.743Z,18.40
2019-06-20T11:43:52.142Z,17.28
2019-06-20T11:46:24.005Z,16.50
2019-06-20T11:48:55.399Z,14.75
2019-06-20T11:51:27.318Z,14.38
2019-06-20T11:54:00.162Z,14.44
2019-06-20T11:56:31.527Z,16.43
2019-06-20T11:59:03.352Z,15.89
2019-06-20T12:01:36.541Z,16.06
2019-06-20T12:04:09.495Z,18.00
2019-06-20T12:06:41.814Z,17.78
2019-06-20T12:09:14.574Z,16.13
2019-06-20T12:11:46.791Z,14.43
2019-06-20T12:14:18.711Z,13.65
2019-06-20T12:16:50.058Z,15.14
2019-06-20T12:19:21.676Z,17.41
2019-06-20T12:21:56.244Z,15.74
2019-06-20T12:24:29.213Z,14.20
2019-06-20T12:27:01.994Z,12.77
2019-06-20T12:29:33.667Z,13.01
2019-06-20T12:32:09.264Z,12.50
2019-06-20T12:34:40.528Z,12.82
2019-06-20T12:37:12.818Z,12.40
2019-06-20T12:39:44.506Z,11.86
2019-06-20T12:42:17.555Z,12.43
2019-06-20T12:44:50.818Z,12.48
2019-06-20T12:47:23.727Z,12.11
2019-06-20T12:49:55.379Z,12.10
2019-06-20T12:52:27.457Z,13.33
2019-06-20T12:54:59.198Z,14.20
2019-06-20T12:57:30.919Z,12.95
2019-06-20T13:00:02.203Z,12.17
2019-06-20T13:02:34.473Z,12.07
2019-06-20T13:05:07.664Z,12.40
2019-06-20T13:07:42.378Z,12.71
2019-06-20T13:10:14.857Z,11.66
2019-06-20T13:12:46.428Z,11.77
2019-06-20T13:15:19.202Z,11.45
2019-06-20T13:17:50.613Z,11.55
2019-06-20T13:20:22.501Z,11.25
2019-06-20T13:22:55.057Z,11.47
2019-06-20T13:25:26.539Z,11.91
2019-06-20T13:27:58.189Z,11.47
2019-06-20T13:30:29.941Z,11.53
2019-06-20T13:33:02.756Z,11.01
2019-06-20T13:35:39.945Z,10.98
2019-06-20T13:38:12.639Z,11.64
2019-06-20T13:40:45.373Z,10.28
2019-06-20T13:43:17.326Z,10.96
2019-06-20T13:45:49.878Z,10.88
2019-06-20T13:48:21.962Z,11.03
2019-06-20T13:50:53.632Z,12.79
2019-06-20T13:53:26.222Z,12.25
2019-06-20T13:55:57.953Z,11.94
2019-06-20T13:58:29.604Z,11.56
2019-06-20T14:01:01.269Z,12.34
2019-06-20T14:03:32.914Z,12.15
2019-06-20T14:06:05.800Z,11.75
2019-06-20T14:08:37.760Z,11.75
2019-06-20T14:11:09.820Z,11.61
2019-06-20T14:13:42.795Z,11.49
2019-06-20T14:16:14.358Z,11.43
2019-06-20T14:18:46.835Z,11.21
2019-06-20T14:21:18.177Z,11.89
2019-06-20T14:23:49.531Z,11.46
2019-06-20T14:26:20.703Z,11.38
2019-06-20T14:28:52.532Z,12.56
2019-06-20T14:31:25.836Z,12.64
2019-06-20T14:33:57.379Z,12.21
2019-06-20T14:36:28.889Z,11.94
2019-06-20T14:39:00.168Z,12.07
2019-06-20T14:41:31.483Z,11.87
2019-06-20T14:44:04.707Z,12.98
2019-06-20T14:46:36.358Z,14.03
2019-06-20T14:49:08.938Z,12.63
2019-06-20T14:51:41.207Z,12.60
2019-06-20T14:54:12.048Z,12.60
2019-06-20T14:56:44.994Z,13.23
2019-06-20T14:59:16.880Z,12.47
2019-06-20T15:01:48.743Z,12.77
2019-06-20T15:04:20.091Z,12.49
2019-06-20T15:06:52.372Z,12.77
2019-06-20T15:09:24.121Z,12.75
2019-06-20T15:11:55.772Z,13.11
2019-06-20T15:14:27.357Z,13.93
2019-06-20T15:16:58.875Z,13.66
2019-06-20T15:19:30.119Z,13.53
2019-06-20T15:22:01.779Z,13.37
2019-06-20T15:24:33.450Z,13.63
2019-06-20T15:27:04.774Z,14.13
2019-06-20T15:29:36.371Z,14.33
2019-06-20T15:32:07.983Z,14.34
2019-06-20T15:34:39.535Z,13.91
2019-06-20T15:37:12.019Z,14.14
2019-06-20T15:39:43.760Z,13.98
2019-06-20T15:42:14.880Z,14.75
2019-06-20T15:44:47.256Z,15.03
2019-06-20T15:47:19.863Z,14.54
2019-06-20T15:49:51.175Z,14.22
2019-06-20T15:52:22.546Z,14.76
2019-06-20T15:54:54.454Z,15.16
2019-06-20T15:57:26.985Z,15.49
2019-06-20T15:59:58.434Z,15.30
2019-06-20T16:02:31.108Z,15.52
2019-06-20T16:05:02.491Z,15.74
2019-06-20T16:07:34.333Z,15.07
2019-06-20T16:10:07.808Z,14.70
2019-06-20T16:12:39.158Z,15.49
2019-06-20T16:15:11.955Z,16.13
2019-06-20T16:17:43.196Z,16.86
2019-06-20T16:20:16.105Z,16.92
2019-06-20T16:22:47.227Z,17.47
2019-06-20T16:25:18.772Z,17.40
2019-06-20T16:27:50.520Z,17.82
2019-06-20T16:30:25.351Z,18.59
2019-06-20T16:32:57.418Z,18.75
2019-06-20T16:35:28.754Z,18.72
2019-06-20T16:38:00.318Z,18.96
2019-06-20T16:40:46.455Z,19.25
2019-06-20T16:43:19.390Z,19.39
2019-06-20T16:45:50.735Z,19.82
2019-06-20T16:48:22.295Z,20.36
2019-06-20T16:50:55.018Z,20.80
2019-06-20T16:53:26.315Z,21.46
2019-06-20T16:55:57.965Z,21.68
2019-06-20T16:58:30.334Z,21.57
2019-06-20T17:01:02.100Z,21.80
2019-06-20T17:03:41.520Z,21.98
2019-06-20T17:06:06.507Z,22.05
2019-06-20T17:08:38.203Z,22.22
2019-06-20T17:11:09.734Z,22.27
2019-06-20T17:13:41.262Z,23.09
2019-06-20T17:16:12.783Z,24.06
2019-06-20T17:18:44.387Z,24.26
2019-06-20T17:21:16.049Z,24.45
2019-06-20T17:23:49.645Z,24.91
2019-06-20T17:26:21.415Z,25.38
2019-06-20T17:28:53.061Z,25.30
2019-06-20T17:31:24.715Z,25.70
2019-06-20T17:33:57.866Z,26.25
2019-06-20T17:36:30.761Z,26.46
2019-06-20T17:39:02.341Z,26.75
2019-06-20T17:41:35.317Z,26.91
2019-06-20T17:44:08.511Z,27.07
2019-06-20T17:46:40.072Z,27.51
2019-06-20T17:49:11.821Z,28.37
2019-06-20T17:51:43.474Z,28.84
2019-06-20T17:54:15.186Z,29.30
2019-06-20T17:56:46.785Z,29.44
2019-06-20T17:59:22.393Z,29.73
2019-06-20T18:01:53.082Z,30.09
2019-06-20T18:04:26.762Z,30.06
2019-06-20T18:06:57.701Z,30.17
2019-06-20T18:09:31.097Z,30.69
2019-06-20T18:12:02.759Z,31.01
2019-06-20T18:14:34.507Z,31.18
2019-06-20T18:17:06.151Z,31.27
2019-06-20T18:19:38.634Z,31.46
2019-06-20T18:22:10.392Z,31.79
2019-06-20T18:24:43.438Z,31.78
2019-06-20T18:27:16.768Z,31.48
2019-06-20T18:29:48.629Z,32.01
2019-06-20T18:32:20.225Z,32.38
2019-06-20T18:35:01.822Z,32.72
2019-06-20T18:37:31.342Z,33.32
2019-06-20T18:39:59.040Z,33.84
2019-06-20T18:42:32.331Z,33.78
2019-06-20T18:45:03.880Z,33.81
2019-06-20T18:47:36.672Z,33.99
2019-06-20T18:50:10.323Z,33.88
2019-06-20T18:52:51.829Z,33.90
2019-06-20T18:55:14.798Z,33.88
2019-06-20T18:57:46.509Z,34.18
2019-06-20T19:00:34.201Z,34.54
2019-06-20T19:02:54.354Z,34.70
2019-06-20T19:05:27.663Z,34.68
2019-06-20T19:07:59.218Z,34.53
2019-06-20T19:10:33.537Z,34.12
2019-06-20T19:13:05.801Z,33.94
2019-06-20T19:15:37.963Z,34.00
2019-06-20T19:18:09.106Z,34.03
2019-06-20T19:20:40.863Z,33.78
2019-06-20T19:23:13.870Z,34.18
2019-06-20T19:25:45.921Z,34.18
2019-06-20T19:28:17.670Z,34.34
2019-06-20T19:30:53.262Z,34.32
2019-06-20T19:33:24.566Z,34.18
2019-06-20T19:35:56.422Z,34.42
2019-06-20T19:38:28.134Z,34.69
2019-06-20T19:40:59.882Z,34.94
2019-06-20T19:43:31.588Z,35.36
2019-06-20T19:46:03.298Z,35.74
2019-06-20T19:48:36.859Z,35.85
2019-06-20T19:51:08.496Z,36.05
2019-06-20T19:53:40.871Z,36.58
2019-06-20T19:56:13.759Z,36.81
2019-06-20T19:58:45.381Z,36.96
2019-06-20T20:01:17.368Z,37.38
2019-06-20T20:03:48.573Z,37.36
2019-06-20T20:06:20.473Z,37.32
2019-06-20T20:08:52.026Z,37.50
2019-06-20T20:11:23.787Z,37.59
2019-06-20T20:13:55.642Z,37.57
2019-06-20T20:16:27.292Z,38.01
2019-06-20T20:18:59.053Z,38.12
2019-06-20T20:21:30.703Z,38.24
2019-06-20T20:24:02.374Z,37.58
2019-06-20T20:26:34.218Z,37.73
2019-06-20T20:29:05.872Z,37.68
2019-06-20T20:31:37.425Z,37.69
2019-06-20T20:34:11.810Z,38.02
2019-06-20T20:36:42.472Z,38.06
2019-06-20T20:39:16.915Z,38.20
2019-06-20T20:41:49.444Z,38.17
2019-06-20T20:44:21.083Z,38.34
2019-06-20T20:46:52.562Z,38.25
2019-06-20T20:49:24.226Z,38.38
2019-06-20T20:51:55.785Z,38.28
2019-06-20T20:54:27.433Z,38.36
2019-06-20T20:57:00.125Z,38.46
2019-06-20T20:59:31.462Z,38.31
2019-06-20T21:02:03.318Z,38.67
2019-06-20T21:04:34.873Z,38.59
2019-06-20T21:07:06.570Z,38.70
2019-06-20T21:09:38.175Z,38.32
2019-06-20T21:12:11.369Z,38.39
2019-06-20T21:14:42.916Z,38.78
2019-06-20T21:17:14.570Z,38.58
2019-06-20T21:19:46.955Z,38.56
2019-06-20T21:22:18.302Z,38.55
2019-06-20T21:24:49.942Z,38.19
2019-06-20T21:27:21.545Z,38.13
2019-06-20T21:29:53.274Z,38.10
2019-06-20T21:32:24.803Z,38.15
2019-06-20T21:34:57.278Z,37.80
2019-06-20T21:37:30.584Z,37.79
2019-06-20T21:40:02.090Z,37.75
2019-06-20T21:42:33.821Z,37.46
2019-06-20T21:45:07.379Z,37.68
2019-06-20T21:47:38.932Z,37.83
2019-06-20T21:50:11.094Z,38.09
2019-06-20T21:52:42.388Z,38.38
2019-06-20T21:55:14.731Z,38.67
2019-06-20T21:57:46.288Z,38.89
2019-06-20T22:00:28.568Z,39.24
2019-06-20T22:03:00.117Z,39.53
2019-06-20T22:05:32.315Z,39.86
2019-06-20T22:08:04.200Z,39.85
2019-06-20T22:10:36.238Z,39.97
2019-06-20T22:13:07.967Z,39.99
2019-06-20T22:15:39.516Z,39.91
2019-06-20T22:18:11.184Z,40.07
2019-06-20T22:20:43.034Z,40.52
2019-06-20T22:23:16.324Z,40.63
2019-06-20T22:25:48.002Z,40.56
2019-06-20T22:28:19.692Z,40.86
2019-06-20T22:30:54.671Z,40.91
2019-06-20T22:33:25.972Z,40.97
2019-06-20T22:35:59.713Z,41.26
2019-06-20T22:38:31.268Z,41.51
2019-06-20T22:41:04.366Z,41.80
2019-06-20T22:43:35.964Z,42.10
2019-06-20T22:46:08.687Z,42.10
2019-06-20T22:48:40.702Z,42.22
2019-06-20T22:51:13.896Z,42.37
2019-06-20T22:53:45.491Z,42.59
2019-06-20T22:56:16.671Z,42.47
2019-06-20T22:58:48.392Z,42.67
2019-06-20T23:01:20.331Z,42.98
2019-06-20T23:03:51.974Z,43.38
2019-06-20T23:06:23.659Z,43.63
2019-06-20T23:08:56.249Z,43.94
2019-06-20T23:11:27.760Z,44.04
2019-06-20T23:13:59.545Z,44.00
2019-06-20T23:16:31.110Z,44.16
2019-06-20T23:19:02.637Z,44.33
2019-06-20T23:21:34.356Z,44.61
2019-06-20T23:24:06.074Z,44.83
2019-06-20T23:26:37.720Z,44.84
2019-06-20T23:29:25.658Z,44.73
2019-06-20T23:31:57.917Z,45.06
2019-06-20T23:34:29.163Z,45.25
2019-06-20T23:37:12.130Z,45.23
2019-06-20T23:39:33.697Z,45.54
2019-06-20T23:42:05.453Z,45.71
2019-06-20T23:44:37.215Z,45.94
2019-06-20T23:47:08.972Z,45.55
2019-06-20T23:49:40.832Z,45.56
2019-06-20T23:52:16.890Z,45.77
2019-06-20T23:54:48.551Z,45.60
2019-06-20T23:57:20.315Z,45.34
2019-06-20T23:59:51.951Z,45.46
